Аэропорт: Ульяновск-Восточный. Ульяновск

ICAO: UWLW

METAR:
2019/05/26 14:00
UWLW 261400Z 17008MPS 8000 BKN040CB 22/06 Q1009 R20/CLRD60 NOSIG RMK QFE752
METAR:
2019/05/26 12:21
TAF UWLW 261045Z 2612/2712 16005G10MPS 8000 BKN030 
      TEMPO 2612/2703 18013MPS 5000 -SHRA BKN015CB 
      TEMPO 2703/2712 20009G14MPS 3100 -TSRA BKN010 BKN015CB